sensor_id;sensor_type;location;lat;lon;timestamp;P1;durP1;ratioP1;P2;durP2;ratioP2
68509;SDS011;55512;50.102;19.958;2023-04-30T00:01:42;25.60;;;15.80;;
68509;SDS011;55512;50.102;19.958;2023-04-30T00:04:08;23.60;;;15.70;;
68509;SDS011;55512;50.102;19.958;2023-04-30T00:06:33;26.90;;;16.70;;
68509;SDS011;55512;50.102;19.958;2023-04-30T00:08:59;26.10;;;15.90;;
68509;SDS011;55512;50.102;19.958;2023-04-30T00:11:24;25.10;;;15.90;;
68509;SDS011;55512;50.102;19.958;2023-04-30T00:13:50;23.50;;;15.30;;
68509;SDS011;55512;50.102;19.958;2023-04-30T00:16:16;23.80;;;15.10;;
68509;SDS011;55512;50.102;19.958;2023-04-30T00:18:42;22.80;;;14.40;;
68509;SDS011;55512;50.102;19.958;2023-04-30T00:21:08;22.60;;;14.10;;
68509;SDS011;55512;50.102;19.958;2023-04-30T00:23:34;20.70;;;13.60;;
68509;SDS011;55512;50.102;19.958;2023-04-30T00:26:00;19.70;;;13.60;;
68509;SDS011;55512;50.102;19.958;2023-04-30T00:28:25;21.70;;;13.60;;
68509;SDS011;55512;50.102;19.958;2023-04-30T00:30:52;22.10;;;13.90;;
68509;SDS011;55512;50.102;19.958;2023-04-30T00:33:17;20.80;;;13.50;;
68509;SDS011;55512;50.102;19.958;2023-04-30T00:35:44;20.90;;;12.70;;
68509;SDS011;55512;50.102;19.958;2023-04-30T00:38:09;22.50;;;13.90;;
68509;SDS011;55512;50.102;19.958;2023-04-30T00:40:35;21.00;;;13.00;;
68509;SDS011;55512;50.102;19.958;2023-04-30T00:43:01;21.70;;;13.40;;
68509;SDS011;55512;50.102;19.958;2023-04-30T00:45:27;20.70;;;12.80;;
68509;SDS011;55512;50.102;19.958;2023-04-30T00:47:52;20.00;;;12.70;;
68509;SDS011;55512;50.102;19.958;2023-04-30T00:50:18;19.20;;;12.30;;
68509;SDS011;55512;50.102;19.958;2023-04-30T00:52:44;20.70;;;13.00;;
68509;SDS011;55512;50.102;19.958;2023-04-30T00:55:11;19.60;;;11.70;;
68509;SDS011;55512;50.102;19.958;2023-04-30T00:57:37;18.70;;;11.30;;
68509;SDS011;55512;50.102;19.958;2023-04-30T01:00:05;16.10;;;11.00;;
68509;SDS011;55512;50.102;19.958;2023-04-30T01:02:36;17.10;;;10.50;;
68509;SDS011;55512;50.102;19.958;2023-04-30T01:05:03;16.50;;;10.00;;
68509;SDS011;55512;50.102;19.958;2023-04-30T01:07:30;17.00;;;10.30;;
68509;SDS011;55512;50.102;19.958;2023-04-30T01:09:56;17.30;;;10.30;;
68509;SDS011;55512;50.102;19.958;2023-04-30T01:12:36;17.40;;;9.90;;
68509;SDS011;55512;50.102;19.958;2023-04-30T01:15:22;16.40;;;10.20;;
68509;SDS011;55512;50.102;19.958;2023-04-30T01:18:04;15.50;;;9.30;;
68509;SDS011;55512;50.102;19.958;2023-04-30T01:20:38;15.80;;;9.30;;
68509;SDS011;55512;50.102;19.958;2023-04-30T01:29:06;16.30;;;9.60;;
68509;SDS011;55512;50.102;19.958;2023-04-30T01:31:33;15.70;;;9.30;;
68509;SDS011;55512;50.102;19.958;2023-04-30T01:33:58;16.30;;;9.10;;
68509;SDS011;55512;50.102;19.958;2023-04-30T01:36:34;17.10;;;9.80;;
68509;SDS011;55512;50.102;19.958;2023-04-30T01:42:10;17.30;;;10.90;;
68509;SDS011;55512;50.102;19.958;2023-04-30T01:47:56;15.70;;;9.20;;
68509;SDS011;55512;50.102;19.958;2023-04-30T01:50:46;15.50;;;8.80;;
68509;SDS011;55512;50.102;19.958;2023-04-30T01:53:20;16.00;;;9.10;;
68509;SDS011;55512;50.102;19.958;2023-04-30T01:55:58;19.40;;;11.00;;
68509;SDS011;55512;50.102;19.958;2023-04-30T01:58:29;18.70;;;10.30;;
68509;SDS011;55512;50.102;19.958;2023-04-30T02:00:54;19.40;;;11.20;;
68509;SDS011;55512;50.102;19.958;2023-04-30T02:03:20;18.40;;;9.90;;
68509;SDS011;55512;50.102;19.958;2023-04-30T02:05:46;18.90;;;11.40;;
68509;SDS011;55512;50.102;19.958;2023-04-30T02:08:12;18.40;;;10.00;;
68509;SDS011;55512;50.102;19.958;2023-04-30T02:10:38;19.60;;;11.30;;
68509;SDS011;55512;50.102;19.958;2023-04-30T02:13:03;18.20;;;10.40;;
68509;SDS011;55512;50.102;19.958;2023-04-30T02:15:29;16.00;;;8.90;;
68509;SDS011;55512;50.102;19.958;2023-04-30T02:17:54;15.20;;;8.40;;
68509;SDS011;55512;50.102;19.958;2023-04-30T02:20:20;16.80;;;9.80;;
68509;SDS011;55512;50.102;19.958;2023-04-30T02:22:45;18.70;;;10.40;;
68509;SDS011;55512;50.102;19.958;2023-04-30T02:25:11;18.90;;;10.70;;
68509;SDS011;55512;50.102;19.958;2023-04-30T02:27:37;19.00;;;10.30;;
68509;SDS011;55512;50.102;19.958;2023-04-30T02:30:03;15.20;;;8.30;;
68509;SDS011;55512;50.102;19.958;2023-04-30T02:32:29;17.80;;;9.20;;
68509;SDS011;55512;50.102;19.958;2023-04-30T02:34:55;16.60;;;9.40;;
68509;SDS011;55512;50.102;19.958;2023-04-30T02:37:21;16.40;;;9.20;;
68509;SDS011;55512;50.102;19.958;2023-04-30T02:39:47;18.70;;;10.10;;
68509;SDS011;55512;50.102;19.958;2023-04-30T02:42:13;18.50;;;9.70;;
68509;SDS011;55512;50.102;19.958;2023-04-30T02:44:38;19.50;;;10.90;;
68509;SDS011;55512;50.102;19.958;2023-04-30T02:47:04;18.00;;;10.00;;
68509;SDS011;55512;50.102;19.958;2023-04-30T02:49:30;20.50;;;10.20;;
68509;SDS011;55512;50.102;19.958;2023-04-30T02:51:55;17.00;;;9.30;;
68509;SDS011;55512;50.102;19.958;2023-04-30T02:54:21;14.80;;;8.70;;
68509;SDS011;55512;50.102;19.958;2023-04-30T02:56:46;15.80;;;8.30;;
68509;SDS011;55512;50.102;19.958;2023-04-30T02:59:12;18.20;;;9.80;;
68509;SDS011;55512;50.102;19.958;2023-04-30T03:01:37;16.30;;;8.90;;
68509;SDS011;55512;50.102;19.958;2023-04-30T03:04:03;20.20;;;10.50;;
68509;SDS011;55512;50.102;19.958;2023-04-30T03:06:30;15.50;;;8.30;;
68509;SDS011;55512;50.102;19.958;2023-04-30T03:08:56;17.20;;;9.00;;
68509;SDS011;55512;50.102;19.958;2023-04-30T03:11:21;17.20;;;8.50;;
68509;SDS011;55512;50.102;19.958;2023-04-30T03:13:47;13.50;;;7.00;;
68509;SDS011;55512;50.102;19.958;2023-04-30T03:16:17;14.50;;;7.70;;
68509;SDS011;55512;50.102;19.958;2023-04-30T03:18:47;13.10;;;7.40;;
68509;SDS011;55512;50.102;19.958;2023-04-30T03:21:13;10.70;;;5.90;;
68509;SDS011;55512;50.102;19.958;2023-04-30T03:23:38;14.20;;;6.40;;
68509;SDS011;55512;50.102;19.958;2023-04-30T03:26:04;10.70;;;5.40;;
68509;SDS011;55512;50.102;19.958;2023-04-30T03:28:30;11.50;;;5.10;;
68509;SDS011;55512;50.102;19.958;2023-04-30T03:30:55;9.60;;;3.90;;
68509;SDS011;55512;50.102;19.958;2023-04-30T03:33:20;8.00;;;3.80;;
68509;SDS011;55512;50.102;19.958;2023-04-30T03:35:46;9.20;;;4.30;;
68509;SDS011;55512;50.102;19.958;2023-04-30T03:38:12;9.00;;;3.90;;
68509;SDS011;55512;50.102;19.958;2023-04-30T03:40:37;9.40;;;4.00;;
68509;SDS011;55512;50.102;19.958;2023-04-30T03:43:03;10.90;;;4.70;;
68509;SDS011;55512;50.102;19.958;2023-04-30T03:45:28;8.10;;;4.30;;
68509;SDS011;55512;50.102;19.958;2023-04-30T03:47:54;8.40;;;4.20;;
68509;SDS011;55512;50.102;19.958;2023-04-30T03:50:19;9.40;;;4.90;;
68509;SDS011;55512;50.102;19.958;2023-04-30T03:52:45;10.30;;;4.60;;
68509;SDS011;55512;50.102;19.958;2023-04-30T03:55:11;8.50;;;4.60;;
68509;SDS011;55512;50.102;19.958;2023-04-30T03:57:38;8.40;;;4.30;;
68509;SDS011;55512;50.102;19.958;2023-04-30T04:00:05;9.30;;;4.20;;
68509;SDS011;55512;50.102;19.958;2023-04-30T04:02:32;9.70;;;4.70;;
68509;SDS011;55512;50.102;19.958;2023-04-30T04:04:58;8.80;;;4.70;;
68509;SDS011;55512;50.102;19.958;2023-04-30T04:07:24;8.50;;;4.60;;
68509;SDS011;55512;50.102;19.958;2023-04-30T04:09:49;7.50;;;4.00;;
68509;SDS011;55512;50.102;19.958;2023-04-30T04:12:15;7.80;;;3.80;;
68509;SDS011;55512;50.102;19.958;2023-04-30T04:14:41;8.10;;;4.50;;
68509;SDS011;55512;50.102;19.958;2023-04-30T04:17:06;7.00;;;3.60;;
68509;SDS011;55512;50.102;19.958;2023-04-30T04:19:32;6.80;;;3.60;;
68509;SDS011;55512;50.102;19.958;2023-04-30T04:21:57;7.90;;;4.00;;
68509;SDS011;55512;50.102;19.958;2023-04-30T04:24:24;8.20;;;4.40;;
68509;SDS011;55512;50.102;19.958;2023-04-30T04:26:50;6.60;;;3.10;;
68509;SDS011;55512;50.102;19.958;2023-04-30T04:29:16;6.90;;;3.20;;
68509;SDS011;55512;50.102;19.958;2023-04-30T04:31:41;6.50;;;3.70;;
68509;SDS011;55512;50.102;19.958;2023-04-30T04:34:07;8.50;;;4.60;;
68509;SDS011;55512;50.102;19.958;2023-04-30T04:36:33;8.20;;;4.10;;
68509;SDS011;55512;50.102;19.958;2023-04-30T04:38:59;10.40;;;5.80;;
68509;SDS011;55512;50.102;19.958;2023-04-30T04:41:32;10.00;;;5.40;;
68509;SDS011;55512;50.102;19.958;2023-04-30T04:44:01;10.00;;;6.20;;
68509;SDS011;55512;50.102;19.958;2023-04-30T04:46:27;8.80;;;5.30;;
68509;SDS011;55512;50.102;19.958;2023-04-30T04:48:54;13.00;;;6.30;;
68509;SDS011;55512;50.102;19.958;2023-04-30T04:51:20;9.80;;;5.40;;
68509;SDS011;55512;50.102;19.958;2023-04-30T04:53:45;9.30;;;5.70;;
68509;SDS011;55512;50.102;19.958;2023-04-30T04:56:11;12.60;;;6.10;;
68509;SDS011;55512;50.102;19.958;2023-04-30T04:58:37;8.90;;;5.30;;
68509;SDS011;55512;50.102;19.958;2023-04-30T05:01:03;10.30;;;5.80;;
68509;SDS011;55512;50.102;19.958;2023-04-30T05:03:31;8.80;;;5.20;;
68509;SDS011;55512;50.102;19.958;2023-04-30T05:05:58;8.90;;;5.20;;
68509;SDS011;55512;50.102;19.958;2023-04-30T05:08:23;8.00;;;4.10;;
68509;SDS011;55512;50.102;19.958;2023-04-30T05:10:49;7.80;;;4.60;;
68509;SDS011;55512;50.102;19.958;2023-04-30T05:13:14;9.20;;;5.20;;
68509;SDS011;55512;50.102;19.958;2023-04-30T05:15:40;8.40;;;4.20;;
68509;SDS011;55512;50.102;19.958;2023-04-30T05:18:05;7.40;;;4.50;;
68509;SDS011;55512;50.102;19.958;2023-04-30T05:20:31;7.30;;;4.00;;
68509;SDS011;55512;50.102;19.958;2023-04-30T05:22:56;6.50;;;3.60;;
68509;SDS011;55512;50.102;19.958;2023-04-30T05:25:22;5.70;;;3.00;;
68509;SDS011;55512;50.102;19.958;2023-04-30T05:27:48;5.90;;;3.10;;
68509;SDS011;55512;50.102;19.958;2023-04-30T05:30:13;5.30;;;2.30;;
68509;SDS011;55512;50.102;19.958;2023-04-30T05:32:41;6.40;;;3.20;;
68509;SDS011;55512;50.102;19.958;2023-04-30T05:35:07;6.90;;;3.50;;
68509;SDS011;55512;50.102;19.958;2023-04-30T05:37:33;6.70;;;3.40;;
68509;SDS011;55512;50.102;19.958;2023-04-30T05:39:59;7.90;;;3.10;;
68509;SDS011;55512;50.102;19.958;2023-04-30T05:42:25;6.40;;;2.80;;
68509;SDS011;55512;50.102;19.958;2023-04-30T05:44:51;8.80;;;4.50;;
68509;SDS011;55512;50.102;19.958;2023-04-30T05:47:16;10.40;;;5.40;;
68509;SDS011;55512;50.102;19.958;2023-04-30T05:49:42;12.80;;;7.40;;
68509;SDS011;55512;50.102;19.958;2023-04-30T05:52:07;9.10;;;5.30;;
68509;SDS011;55512;50.102;19.958;2023-04-30T05:54:33;11.00;;;6.40;;
68509;SDS011;55512;50.102;19.958;2023-04-30T05:56:58;8.30;;;4.40;;
68509;SDS011;55512;50.102;19.958;2023-04-30T05:59:24;12.50;;;5.20;;
68509;SDS011;55512;50.102;19.958;2023-04-30T06:01:50;14.40;;;7.90;;
68509;SDS011;55512;50.102;19.958;2023-04-30T06:04:16;12.90;;;7.20;;
68509;SDS011;55512;50.102;19.958;2023-04-30T06:06:42;15.00;;;7.90;;
68509;SDS011;55512;50.102;19.958;2023-04-30T06:09:08;14.50;;;8.30;;
68509;SDS011;55512;50.102;19.958;2023-04-30T06:11:34;14.10;;;7.20;;
68509;SDS011;55512;50.102;19.958;2023-04-30T06:14:02;15.40;;;7.70;;
68509;SDS011;55512;50.102;19.958;2023-04-30T06:16:28;13.80;;;8.70;;
68509;SDS011;55512;50.102;19.958;2023-04-30T06:18:54;10.90;;;6.70;;
68509;SDS011;55512;50.102;19.958;2023-04-30T06:21:20;13.90;;;8.10;;
68509;SDS011;55512;50.102;19.958;2023-04-30T06:23:45;10.00;;;5.60;;
68509;SDS011;55512;50.102;19.958;2023-04-30T06:26:11;13.40;;;7.00;;
68509;SDS011;55512;50.102;19.958;2023-04-30T06:28:39;13.50;;;6.90;;
68509;SDS011;55512;50.102;19.958;2023-04-30T06:31:04;14.10;;;7.40;;
68509;SDS011;55512;50.102;19.958;2023-04-30T06:33:30;13.20;;;7.70;;
68509;SDS011;55512;50.102;19.958;2023-04-30T06:35:55;11.30;;;6.60;;
68509;SDS011;55512;50.102;19.958;2023-04-30T06:38:21;10.20;;;6.00;;
68509;SDS011;55512;50.102;19.958;2023-04-30T06:40:46;9.10;;;4.20;;
68509;SDS011;55512;50.102;19.958;2023-04-30T06:43:12;13.00;;;6.70;;
68509;SDS011;55512;50.102;19.958;2023-04-30T06:45:38;11.00;;;6.60;;
68509;SDS011;55512;50.102;19.958;2023-04-30T06:48:03;12.50;;;6.80;;
68509;SDS011;55512;50.102;19.958;2023-04-30T06:50:29;8.50;;;4.50;;
68509;SDS011;55512;50.102;19.958;2023-04-30T06:52:55;11.70;;;6.40;;
68509;SDS011;55512;50.102;19.958;2023-04-30T06:55:20;11.80;;;6.00;;
68509;SDS011;55512;50.102;19.958;2023-04-30T06:57:46;12.30;;;5.60;;
68509;SDS011;55512;50.102;19.958;2023-04-30T07:00:12;12.70;;;5.40;;
68509;SDS011;55512;50.102;19.958;2023-04-30T07:02:39;10.30;;;4.90;;
68509;SDS011;55512;50.102;19.958;2023-04-30T07:05:05;8.70;;;4.80;;
68509;SDS011;55512;50.102;19.958;2023-04-30T07:07:31;11.20;;;5.30;;
68509;SDS011;55512;50.102;19.958;2023-04-30T07:09:57;8.70;;;4.20;;
68509;SDS011;55512;50.102;19.958;2023-04-30T07:12:23;12.20;;;4.70;;
68509;SDS011;55512;50.102;19.958;2023-04-30T07:14:49;11.30;;;5.20;;
68509;SDS011;55512;50.102;19.958;2023-04-30T07:17:15;10.20;;;5.60;;
68509;SDS011;55512;50.102;19.958;2023-04-30T07:19:40;10.00;;;5.10;;
68509;SDS011;55512;50.102;19.958;2023-04-30T07:22:06;9.00;;;4.30;;
68509;SDS011;55512;50.102;19.958;2023-04-30T07:24:31;10.00;;;5.20;;
68509;SDS011;55512;50.102;19.958;2023-04-30T07:26:58;10.00;;;5.10;;
68509;SDS011;55512;50.102;19.958;2023-04-30T07:29:27;10.00;;;4.30;;
68509;SDS011;55512;50.102;19.958;2023-04-30T07:31:53;10.20;;;5.30;;
68509;SDS011;55512;50.102;19.958;2023-04-30T07:34:19;10.20;;;4.90;;
68509;SDS011;55512;50.102;19.958;2023-04-30T07:36:46;9.40;;;4.70;;
68509;SDS011;55512;50.102;19.958;2023-04-30T07:39:12;10.90;;;5.30;;
68509;SDS011;55512;50.102;19.958;2023-04-30T07:41:38;8.10;;;3.90;;
68509;SDS011;55512;50.102;19.958;2023-04-30T07:44:03;9.40;;;5.00;;
68509;SDS011;55512;50.102;19.958;2023-04-30T07:46:29;9.30;;;4.40;;
68509;SDS011;55512;50.102;19.958;2023-04-30T07:48:55;10.00;;;4.30;;
68509;SDS011;55512;50.102;19.958;2023-04-30T07:51:20;11.30;;;5.60;;
68509;SDS011;55512;50.102;19.958;2023-04-30T07:53:46;9.90;;;4.50;;
68509;SDS011;55512;50.102;19.958;2023-04-30T07:56:12;10.80;;;4.70;;
68509;SDS011;55512;50.102;19.958;2023-04-30T07:58:37;8.70;;;3.80;;
68509;SDS011;55512;50.102;19.958;2023-04-30T08:01:02;9.20;;;4.50;;
68509;SDS011;55512;50.102;19.958;2023-04-30T08:03:28;8.00;;;4.00;;
68509;SDS011;55512;50.102;19.958;2023-04-30T08:05:53;9.80;;;4.50;;
68509;SDS011;55512;50.102;19.958;2023-04-30T08:08:19;8.90;;;4.50;;
68509;SDS011;55512;50.102;19.958;2023-04-30T08:10:45;11.70;;;6.00;;
68509;SDS011;55512;50.102;19.958;2023-04-30T08:13:10;10.40;;;5.00;;
68509;SDS011;55512;50.102;19.958;2023-04-30T08:15:36;9.10;;;4.40;;
68509;SDS011;55512;50.102;19.958;2023-04-30T08:18:02;7.60;;;4.30;;
68509;SDS011;55512;50.102;19.958;2023-04-30T08:20:29;9.20;;;4.30;;
68509;SDS011;55512;50.102;19.958;2023-04-30T08:22:54;8.40;;;4.10;;
68509;SDS011;55512;50.102;19.958;2023-04-30T08:25:20;9.90;;;4.30;;
68509;SDS011;55512;50.102;19.958;2023-04-30T08:27:45;7.90;;;4.20;;
68509;SDS011;55512;50.102;19.958;2023-04-30T08:30:11;9.40;;;4.80;;
68509;SDS011;55512;50.102;19.958;2023-04-30T08:32:36;9.60;;;4.30;;
68509;SDS011;55512;50.102;19.958;2023-04-30T08:35:06;7.60;;;3.40;;
68509;SDS011;55512;50.102;19.958;2023-04-30T08:37:32;7.40;;;2.70;;
68509;SDS011;55512;50.102;19.958;2023-04-30T08:39:59;7.70;;;3.90;;
68509;SDS011;55512;50.102;19.958;2023-04-30T08:42:35;8.10;;;4.00;;
68509;SDS011;55512;50.102;19.958;2023-04-30T08:45:02;6.90;;;4.20;;
68509;SDS011;55512;50.102;19.958;2023-04-30T08:47:29;6.00;;;2.40;;
68509;SDS011;55512;50.102;19.958;2023-04-30T08:49:55;8.40;;;3.60;;
68509;SDS011;55512;50.102;19.958;2023-04-30T08:52:21;8.10;;;3.40;;
68509;SDS011;55512;50.102;19.958;2023-04-30T08:54:47;8.70;;;2.70;;
68509;SDS011;55512;50.102;19.958;2023-04-30T08:57:14;7.50;;;3.70;;
68509;SDS011;55512;50.102;19.958;2023-04-30T08:59:40;6.50;;;2.60;;
68509;SDS011;55512;50.102;19.958;2023-04-30T09:02:06;10.10;;;3.10;;
68509;SDS011;55512;50.102;19.958;2023-04-30T09:04:32;14.80;;;4.70;;
68509;SDS011;55512;50.102;19.958;2023-04-30T09:06:58;8.30;;;4.70;;
68509;SDS011;55512;50.102;19.958;2023-04-30T09:09:29;5.60;;;2.60;;
68509;SDS011;55512;50.102;19.958;2023-04-30T09:14:40;6.80;;;3.10;;
68509;SDS011;55512;50.102;19.958;2023-04-30T09:17:07;8.00;;;3.60;;
68509;SDS011;55512;50.102;19.958;2023-04-30T09:19:36;9.00;;;3.80;;
68509;SDS011;55512;50.102;19.958;2023-04-30T09:22:23;10.30;;;4.50;;
68509;SDS011;55512;50.102;19.958;2023-04-30T09:24:50;8.50;;;3.30;;
68509;SDS011;55512;50.102;19.958;2023-04-30T09:27:17;7.00;;;3.80;;
68509;SDS011;55512;50.102;19.958;2023-04-30T09:29:44;7.50;;;3.40;;
68509;SDS011;55512;50.102;19.958;2023-04-30T09:32:10;7.50;;;3.50;;
68509;SDS011;55512;50.102;19.958;2023-04-30T09:34:37;6.00;;;2.10;;
68509;SDS011;55512;50.102;19.958;2023-04-30T09:37:02;7.20;;;3.70;;
68509;SDS011;55512;50.102;19.958;2023-04-30T09:39:28;6.30;;;3.40;;
68509;SDS011;55512;50.102;19.958;2023-04-30T09:42:08;6.20;;;2.80;;
68509;SDS011;55512;50.102;19.958;2023-04-30T09:44:37;6.80;;;3.30;;
68509;SDS011;55512;50.102;19.958;2023-04-30T09:47:04;4.90;;;1.90;;
68509;SDS011;55512;50.102;19.958;2023-04-30T09:49:36;6.30;;;2.80;;
68509;SDS011;55512;50.102;19.958;2023-04-30T09:52:01;9.30;;;3.00;;
68509;SDS011;55512;50.102;19.958;2023-04-30T09:54:29;5.80;;;2.60;;
68509;SDS011;55512;50.102;19.958;2023-04-30T09:56:57;6.30;;;3.00;;
68509;SDS011;55512;50.102;19.958;2023-04-30T09:59:29;6.00;;;2.00;;
68509;SDS011;55512;50.102;19.958;2023-04-30T10:02:01;6.10;;;3.10;;
68509;SDS011;55512;50.102;19.958;2023-04-30T10:04:44;6.60;;;3.10;;
68509;SDS011;55512;50.102;19.958;2023-04-30T10:07:19;6.40;;;3.10;;
68509;SDS011;55512;50.102;19.958;2023-04-30T10:12:49;6.70;;;3.10;;
68509;SDS011;55512;50.102;19.958;2023-04-30T10:15:24;5.50;;;2.40;;
68509;SDS011;55512;50.102;19.958;2023-04-30T10:18:02;7.30;;;3.10;;
68509;SDS011;55512;50.102;19.958;2023-04-30T10:20:34;6.20;;;2.50;;
68509;SDS011;55512;50.102;19.958;2023-04-30T10:23:03;5.80;;;2.40;;
68509;SDS011;55512;50.102;19.958;2023-04-30T10:25:31;6.10;;;2.60;;
68509;SDS011;55512;50.102;19.958;2023-04-30T10:27:57;5.30;;;2.70;;
68509;SDS011;55512;50.102;19.958;2023-04-30T10:30:23;6.60;;;2.70;;
68509;SDS011;55512;50.102;19.958;2023-04-30T10:32:57;4.90;;;2.10;;
68509;SDS011;55512;50.102;19.958;2023-04-30T10:35:56;6.20;;;3.00;;
68509;SDS011;55512;50.102;19.958;2023-04-30T10:38:26;4.50;;;2.10;;
68509;SDS011;55512;50.102;19.958;2023-04-30T10:41:00;8.60;;;3.20;;
68509;SDS011;55512;50.102;19.958;2023-04-30T10:43:29;5.10;;;2.70;;
68509;SDS011;55512;50.102;19.958;2023-04-30T10:45:56;7.30;;;2.80;;
68509;SDS011;55512;50.102;19.958;2023-04-30T10:48:22;4.80;;;2.10;;
68509;SDS011;55512;50.102;19.958;2023-04-30T10:50:51;5.30;;;2.10;;
68509;SDS011;55512;50.102;19.958;2023-04-30T10:53:19;6.00;;;2.50;;
68509;SDS011;55512;50.102;19.958;2023-04-30T10:55:57;6.40;;;2.60;;
68509;SDS011;55512;50.102;19.958;2023-04-30T10:58:28;6.50;;;2.90;;
68509;SDS011;55512;50.102;19.958;2023-04-30T11:03:35;5.30;;;2.30;;
68509;SDS011;55512;50.102;19.958;2023-04-30T11:06:12;4.10;;;1.80;;
68509;SDS011;55512;50.102;19.958;2023-04-30T11:08:43;4.30;;;2.00;;
68509;SDS011;55512;50.102;19.958;2023-04-30T11:11:10;7.60;;;2.80;;
68509;SDS011;55512;50.102;19.958;2023-04-30T11:13:57;6.30;;;2.50;;
68509;SDS011;55512;50.102;19.958;2023-04-30T11:16:30;4.70;;;1.70;;
68509;SDS011;55512;50.102;19.958;2023-04-30T11:19:12;5.00;;;2.20;;
68509;SDS011;55512;50.102;19.958;2023-04-30T11:22:27;6.80;;;2.30;;
68509;SDS011;55512;50.102;19.958;2023-04-30T11:27:26;4.10;;;1.90;;
68509;SDS011;55512;50.102;19.958;2023-04-30T11:29:54;4.80;;;1.90;;
68509;SDS011;55512;50.102;19.958;2023-04-30T11:32:22;5.60;;;2.50;;
68509;SDS011;55512;50.102;19.958;2023-04-30T11:34:49;6.10;;;2.70;;
68509;SDS011;55512;50.102;19.958;2023-04-30T11:40:00;5.50;;;2.00;;
68509;SDS011;55512;50.102;19.958;2023-04-30T11:42:28;7.60;;;3.10;;
68509;SDS011;55512;50.102;19.958;2023-04-30T11:45:08;4.90;;;2.60;;
68509;SDS011;55512;50.102;19.958;2023-04-30T11:50:16;6.00;;;3.00;;
68509;SDS011;55512;50.102;19.958;2023-04-30T11:52:51;5.90;;;2.30;;
68509;SDS011;55512;50.102;19.958;2023-04-30T11:55:22;7.50;;;3.10;;
68509;SDS011;55512;50.102;19.958;2023-04-30T11:57:50;6.10;;;2.60;;
68509;SDS011;55512;50.102;19.958;2023-04-30T12:00:19;7.30;;;2.70;;
68509;SDS011;55512;50.102;19.958;2023-04-30T12:02:56;7.70;;;2.80;;
68509;SDS011;55512;50.102;19.958;2023-04-30T12:05:25;5.40;;;2.30;;
68509;SDS011;55512;50.102;19.958;2023-04-30T12:08:05;5.90;;;2.70;;
68509;SDS011;55512;50.102;19.958;2023-04-30T12:10:34;5.30;;;2.40;;
68509;SDS011;55512;50.102;19.958;2023-04-30T12:13:00;4.70;;;2.00;;
68509;SDS011;55512;50.102;19.958;2023-04-30T12:15:27;6.60;;;2.40;;
68509;SDS011;55512;50.102;19.958;2023-04-30T12:17:55;5.80;;;2.50;;
68509;SDS011;55512;50.102;19.958;2023-04-30T12:20:25;4.00;;;2.00;;
68509;SDS011;55512;50.102;19.958;2023-04-30T12:22:52;7.60;;;2.70;;
68509;SDS011;55512;50.102;19.958;2023-04-30T12:25:20;6.40;;;2.50;;
68509;SDS011;55512;50.102;19.958;2023-04-30T12:27:51;5.80;;;3.00;;
68509;SDS011;55512;50.102;19.958;2023-04-30T12:30:26;6.60;;;2.50;;
68509;SDS011;55512;50.102;19.958;2023-04-30T12:32:53;6.10;;;3.10;;
68509;SDS011;55512;50.102;19.958;2023-04-30T12:35:22;6.30;;;2.90;;
68509;SDS011;55512;50.102;19.958;2023-04-30T12:37:55;7.20;;;3.00;;
68509;SDS011;55512;50.102;19.958;2023-04-30T12:40:27;6.30;;;2.70;;
68509;SDS011;55512;50.102;19.958;2023-04-30T12:48:13;4.60;;;1.80;;
68509;SDS011;55512;50.102;19.958;2023-04-30T12:50:40;6.20;;;2.60;;
68509;SDS011;55512;50.102;19.958;2023-04-30T12:53:05;6.60;;;2.80;;
68509;SDS011;55512;50.102;19.958;2023-04-30T12:55:34;5.00;;;2.30;;
68509;SDS011;55512;50.102;19.958;2023-04-30T12:58:07;5.20;;;2.00;;
68509;SDS011;55512;50.102;19.958;2023-04-30T13:03:20;4.30;;;2.10;;
68509;SDS011;55512;50.102;19.958;2023-04-30T13:05:50;6.50;;;2.70;;
68509;SDS011;55512;50.102;19.958;2023-04-30T13:08:18;5.90;;;2.30;;
68509;SDS011;55512;50.102;19.958;2023-04-30T13:10:45;3.40;;;1.60;;
68509;SDS011;55512;50.102;19.958;2023-04-30T13:13:16;7.10;;;2.80;;
68509;SDS011;55512;50.102;19.958;2023-04-30T13:15:42;5.60;;;1.90;;
68509;SDS011;55512;50.102;19.958;2023-04-30T13:18:08;5.00;;;2.10;;
68509;SDS011;55512;50.102;19.958;2023-04-30T13:20:35;5.00;;;2.20;;
68509;SDS011;55512;50.102;19.958;2023-04-30T13:23:00;6.30;;;2.40;;
68509;SDS011;55512;50.102;19.958;2023-04-30T13:25:26;5.40;;;2.10;;
68509;SDS011;55512;50.102;19.958;2023-04-30T13:27:51;6.20;;;2.20;;
68509;SDS011;55512;50.102;19.958;2023-04-30T13:30:17;3.90;;;1.50;;
68509;SDS011;55512;50.102;19.958;2023-04-30T13:32:43;5.60;;;2.10;;
68509;SDS011;55512;50.102;19.958;2023-04-30T13:35:10;7.20;;;2.20;;
68509;SDS011;55512;50.102;19.958;2023-04-30T13:37:36;5.20;;;2.00;;
68509;SDS011;55512;50.102;19.958;2023-04-30T13:40:04;7.70;;;2.20;;
68509;SDS011;55512;50.102;19.958;2023-04-30T13:42:37;5.20;;;2.40;;
68509;SDS011;55512;50.102;19.958;2023-04-30T13:45:05;7.50;;;2.80;;
68509;SDS011;55512;50.102;19.958;2023-04-30T13:47:31;6.10;;;2.00;;
68509;SDS011;55512;50.102;19.958;2023-04-30T13:49:56;6.50;;;2.10;;
68509;SDS011;55512;50.102;19.958;2023-04-30T13:52:22;4.30;;;2.10;;
68509;SDS011;55512;50.102;19.958;2023-04-30T13:54:48;6.30;;;2.50;;
68509;SDS011;55512;50.102;19.958;2023-04-30T13:57:13;4.70;;;2.00;;
68509;SDS011;55512;50.102;19.958;2023-04-30T13:59:39;6.00;;;1.90;;
68509;SDS011;55512;50.102;19.958;2023-04-30T14:02:05;7.60;;;2.60;;
68509;SDS011;55512;50.102;19.958;2023-04-30T14:04:31;6.30;;;2.30;;
68509;SDS011;55512;50.102;19.958;2023-04-30T14:06:57;4.40;;;2.40;;
68509;SDS011;55512;50.102;19.958;2023-04-30T14:09:22;6.20;;;2.30;;
68509;SDS011;55512;50.102;19.958;2023-04-30T14:11:48;6.40;;;2.30;;
68509;SDS011;55512;50.102;19.958;2023-04-30T14:14:13;3.80;;;1.80;;
68509;SDS011;55512;50.102;19.958;2023-04-30T14:16:39;6.90;;;2.40;;
68509;SDS011;55512;50.102;19.958;2023-04-30T14:19:05;5.70;;;2.50;;
68509;SDS011;55512;50.102;19.958;2023-04-30T14:21:30;4.10;;;2.10;;
68509;SDS011;55512;50.102;19.958;2023-04-30T14:23:57;6.70;;;2.30;;
68509;SDS011;55512;50.102;19.958;2023-04-30T14:26:26;5.30;;;2.30;;
68509;SDS011;55512;50.102;19.958;2023-04-30T14:28:51;4.60;;;2.20;;
68509;SDS011;55512;50.102;19.958;2023-04-30T14:31:19;4.80;;;1.80;;
68509;SDS011;55512;50.102;19.958;2023-04-30T14:33:44;5.60;;;2.80;;
68509;SDS011;55512;50.102;19.958;2023-04-30T14:36:10;6.20;;;2.50;;
68509;SDS011;55512;50.102;19.958;2023-04-30T14:38:35;6.20;;;2.60;;
68509;SDS011;55512;50.102;19.958;2023-04-30T14:41:01;3.70;;;2.20;;
68509;SDS011;55512;50.102;19.958;2023-04-30T14:43:26;5.70;;;2.90;;
68509;SDS011;55512;50.102;19.958;2023-04-30T14:45:52;6.00;;;2.60;;
68509;SDS011;55512;50.102;19.958;2023-04-30T14:48:18;5.60;;;2.80;;
68509;SDS011;55512;50.102;19.958;2023-04-30T14:50:43;4.10;;;2.20;;
68509;SDS011;55512;50.102;19.958;2023-04-30T14:53:10;5.80;;;2.90;;
68509;SDS011;55512;50.102;19.958;2023-04-30T14:55:36;5.50;;;2.50;;
68509;SDS011;55512;50.102;19.958;2023-04-30T14:58:03;7.30;;;2.90;;
68509;SDS011;55512;50.102;19.958;2023-04-30T15:00:30;6.10;;;2.40;;
68509;SDS011;55512;50.102;19.958;2023-04-30T15:02:57;3.90;;;2.30;;
68509;SDS011;55512;50.102;19.958;2023-04-30T15:05:23;6.60;;;2.70;;
68509;SDS011;55512;50.102;19.958;2023-04-30T15:07:50;5.60;;;3.00;;